createdAt,value
2022-10-02T00:01:07.120Z,821.3
2022-10-02T00:02:50.828Z,822.6
2022-10-02T00:04:34.503Z,824.7
2022-10-02T00:06:18.257Z,822.2
2022-10-02T00:08:01.944Z,817.9
2022-10-02T00:09:45.628Z,816.3
2022-10-02T00:11:29.324Z,813.4
2022-10-02T00:13:13.026Z,811.5
2022-10-02T00:14:56.788Z,811.2
2022-10-02T00:16:40.484Z,809.6
2022-10-02T00:18:24.146Z,810.2
2022-10-02T00:20:07.831Z,808
2022-10-02T00:21:51.536Z,808
2022-10-02T00:23:35.304Z,805.4
2022-10-02T00:25:18.992Z,804.8
2022-10-02T00:27:02.672Z,805.7
2022-10-02T00:28:46.363Z,806.2
2022-10-02T00:30:30.067Z,806.9
2022-10-02T00:32:13.837Z,804.3
2022-10-02T00:33:57.509Z,801.8
2022-10-02T00:35:41.194Z,800.6
2022-10-02T00:37:24.874Z,797.7
2022-10-02T00:39:08.568Z,798.8
2022-10-02T00:40:52.278Z,797.3
2022-10-02T00:42:36.037Z,795.6
2022-10-02T00:44:19.713Z,794.6
2022-10-02T00:46:03.420Z,793.8
2022-10-02T00:47:47.083Z,790.4
2022-10-02T00:49:30.799Z,789.9
2022-10-02T00:51:14.495Z,790.6
2022-10-02T00:52:58.239Z,786.9
2022-10-02T00:54:42.041Z,786.3
2022-10-02T00:56:25.601Z,783.9
2022-10-02T00:58:09.311Z,782
2022-10-02T00:59:53.008Z,779.8
2022-10-02T01:01:36.769Z,779.1
2022-10-02T01:03:20.446Z,780.6
2022-10-02T01:05:04.128Z,779.2
2022-10-02T01:06:47.809Z,778.7
2022-10-02T01:08:31.530Z,779.9
2022-10-02T01:10:15.228Z,779
2022-10-02T01:11:58.971Z,777.1
2022-10-02T01:13:42.656Z,776.4
2022-10-02T01:15:26.341Z,775
2022-10-02T01:17:10.045Z,772.1
2022-10-02T01:18:53.752Z,771.5
2022-10-02T01:20:37.494Z,769.5
2022-10-02T01:22:21.185Z,770.6
2022-10-02T01:24:04.854Z,771.1
2022-10-02T01:25:48.543Z,770.8
2022-10-02T01:27:32.247Z,771.5
2022-10-02T01:29:15.940Z,770.8
2022-10-02T01:30:59.702Z,771
2022-10-02T01:32:43.378Z,767.9
2022-10-02T01:34:27.085Z,767.5
2022-10-02T01:36:10.745Z,769
2022-10-02T01:37:54.462Z,768.7
2022-10-02T01:39:38.209Z,766.1
2022-10-02T01:41:21.910Z,764.2
2022-10-02T01:43:05.620Z,766.5
2022-10-02T01:44:49.277Z,768.3
2022-10-02T01:46:32.968Z,768.5
2022-10-02T01:48:16.677Z,766.8
2022-10-02T01:50:00.427Z,764.6
2022-10-02T01:51:44.106Z,765.3
2022-10-02T01:53:27.789Z,762.7
2022-10-02T01:55:11.503Z,760.1
2022-10-02T01:56:55.183Z,759
2022-10-02T01:58:38.953Z,759
2022-10-02T02:00:22.638Z,758.5
2022-10-02T02:02:06.315Z,756
2022-10-02T02:03:50.006Z,754.7
2022-10-02T02:05:33.696Z,754.1
2022-10-02T02:07:17.389Z,753.4
2022-10-02T02:09:01.159Z,750.4
2022-10-02T02:10:44.842Z,751.9
2022-10-02T02:12:28.521Z,752.3
2022-10-02T02:14:12.219Z,751.6
2022-10-02T02:15:55.909Z,756.8
2022-10-02T02:17:39.608Z,758.6
2022-10-02T02:19:23.368Z,759
2022-10-02T02:21:07.055Z,757.8
2022-10-02T02:22:50.732Z,757.7
2022-10-02T02:24:34.404Z,756
2022-10-02T02:28:01.817Z,756.6
2022-10-02T02:31:29.320Z,758
2022-10-02T02:33:12.941Z,757.6
2022-10-02T02:34:56.618Z,753.5
2022-10-02T02:36:40.350Z,752.2
2022-10-02T02:38:24.018Z,751.5
2022-10-02T02:40:07.775Z,754.9
2022-10-02T02:41:51.450Z,749.8
2022-10-02T02:43:35.148Z,749.1
2022-10-02T02:45:18.834Z,748
2022-10-02T02:47:02.535Z,745.9
2022-10-02T02:48:46.298Z,745.5
2022-10-02T02:50:29.992Z,743.6
2022-10-02T02:52:13.660Z,744.8
2022-10-02T02:53:57.349Z,745.4
2022-10-02T02:55:41.064Z,741.5
2022-10-02T02:57:24.760Z,738.4
2022-10-02T02:59:08.500Z,733.2
2022-10-02T03:00:52.187Z,732.7
2022-10-02T03:02:35.871Z,734.8
2022-10-02T03:04:19.568Z,736.1
2022-10-02T03:06:03.268Z,735.9
2022-10-02T03:07:46.960Z,736.3
2022-10-02T03:09:30.719Z,736.6
2022-10-02T03:11:14.415Z,736.3
2022-10-02T03:12:58.072Z,734.3
2022-10-02T03:14:41.793Z,732.4
2022-10-02T03:16:25.461Z,730.8
2022-10-02T03:18:09.233Z,729.1
2022-10-02T03:19:52.914Z,727.9
2022-10-02T03:21:36.592Z,729.7
2022-10-02T03:23:20.277Z,730.3
2022-10-02T03:25:03.976Z,729.6
2022-10-02T03:26:47.674Z,732.2
2022-10-02T03:28:31.375Z,735.2
2022-10-02T03:30:15.117Z,733.4
2022-10-02T03:31:58.809Z,732.1
2022-10-02T03:35:26.238Z,734.7
2022-10-02T03:37:09.886Z,736.5
2022-10-02T03:38:53.654Z,734.9
2022-10-02T03:40:37.336Z,731.9
2022-10-02T03:42:21.006Z,728.7
2022-10-02T03:44:04.692Z,727.6
2022-10-02T03:45:48.397Z,731.8
2022-10-02T03:47:32.097Z,729.9
2022-10-02T03:49:15.789Z,729
2022-10-02T03:50:59.529Z,730.8
2022-10-02T03:52:43.207Z,728
2022-10-02T03:54:26.901Z,725.6
2022-10-02T03:56:10.605Z,725.1
2022-10-02T03:57:54.377Z,727.8
2022-10-02T03:59:38.051Z,727.3
2022-10-02T04:01:21.733Z,726
2022-10-02T04:03:05.427Z,722.9
2022-10-02T04:04:49.137Z,720.2
2022-10-02T04:06:32.828Z,720.9
2022-10-02T04:08:16.578Z,721.4
2022-10-02T04:10:00.258Z,722.1
2022-10-02T04:11:43.937Z,718.6
2022-10-02T04:13:27.636Z,716.8
2022-10-02T04:15:11.336Z,717.9
2022-10-02T04:16:55.040Z,718.3
2022-10-02T04:18:38.786Z,717.5
2022-10-02T04:20:22.465Z,717.1
2022-10-02T04:22:06.156Z,718
2022-10-02T04:23:49.851Z,716.3
2022-10-02T04:25:33.547Z,713.6
2022-10-02T04:27:17.300Z,712.5
2022-10-02T04:29:00.984Z,714
2022-10-02T04:30:44.675Z,714.4
2022-10-02T04:32:28.381Z,714.1
2022-10-02T04:34:12.080Z,712.7
2022-10-02T04:35:55.832Z,712.8
2022-10-02T04:37:39.505Z,714.5
2022-10-02T04:39:23.241Z,715.5
2022-10-02T04:41:06.893Z,715.3
2022-10-02T04:42:50.584Z,713.7
2022-10-02T04:44:34.290Z,709.4
2022-10-02T04:46:18.034Z,707.3
2022-10-02T04:48:01.792Z,706.1
2022-10-02T04:49:45.398Z,708.6
2022-10-02T04:51:29.101Z,707.7
2022-10-02T04:53:12.789Z,707
2022-10-02T04:54:56.494Z,708.3
2022-10-02T04:56:40.257Z,709
2022-10-02T04:58:23.966Z,710
2022-10-02T05:00:07.604Z,712.1
2022-10-02T05:01:51.287Z,715.1
2022-10-02T05:03:34.999Z,713.9
2022-10-02T05:05:18.765Z,712.5
2022-10-02T05:07:02.456Z,712.9
2022-10-02T05:08:46.128Z,710.9
2022-10-02T05:10:29.874Z,711.9
2022-10-02T05:12:13.539Z,712
2022-10-02T05:13:57.195Z,711.6
2022-10-02T05:15:41.004Z,713.3
2022-10-02T05:17:24.647Z,712.3
2022-10-02T05:19:08.337Z,711.7
2022-10-02T05:20:52.014Z,712.2
2022-10-02T05:22:35.702Z,712.4
2022-10-02T05:24:19.409Z,715.4
2022-10-02T05:26:03.097Z,719.7
2022-10-02T05:27:46.954Z,721.3
2022-10-02T05:29:30.537Z,724.6
2022-10-02T05:31:14.214Z,724.2
2022-10-02T05:32:57.907Z,728
2022-10-02T05:34:41.642Z,727.6
2022-10-02T05:36:25.311Z,728
2022-10-02T05:38:09.059Z,729.4
2022-10-02T05:39:52.982Z,734.2
2022-10-02T05:41:36.422Z,735.5
2022-10-02T05:43:20.129Z,734.9
2022-10-02T05:45:03.834Z,733.7
2022-10-02T05:46:47.588Z,737
2022-10-02T05:48:31.270Z,735.8
2022-10-02T05:50:14.945Z,735.3
2022-10-02T05:51:58.631Z,732.5
2022-10-02T05:53:42.346Z,734.7
2022-10-02T05:55:26.038Z,734.7
2022-10-02T05:57:09.788Z,734.2
2022-10-02T05:58:53.468Z,731.6
2022-10-02T06:00:37.152Z,729.9
2022-10-02T06:02:20.837Z,731
2022-10-02T06:04:04.537Z,732.4
2022-10-02T06:05:48.235Z,729.8
2022-10-02T06:07:32.001Z,728.1
2022-10-02T06:09:15.674Z,729.1
2022-10-02T06:10:59.354Z,728
2022-10-02T06:12:43.037Z,725
2022-10-02T06:14:26.749Z,726.9
2022-10-02T06:16:10.449Z,726.5
2022-10-02T06:17:54.231Z,722.3
2022-10-02T06:19:37.901Z,720.7
2022-10-02T06:21:21.558Z,721.9
2022-10-02T06:23:05.283Z,720
2022-10-02T06:24:48.946Z,716.6
2022-10-02T06:26:32.653Z,715.9
2022-10-02T06:28:16.402Z,713.5
2022-10-02T06:30:00.084Z,712.7
2022-10-02T06:31:43.766Z,711.8
2022-10-02T06:33:27.456Z,712.8
2022-10-02T06:35:11.164Z,714.5
2022-10-02T06:36:54.891Z,713.5
2022-10-02T06:38:38.677Z,714.5
2022-10-02T06:40:22.291Z,715.4
2022-10-02T06:42:05.977Z,713.2
2022-10-02T06:43:49.691Z,713.7
2022-10-02T06:45:33.448Z,710.8
2022-10-02T06:47:17.138Z,710.2
2022-10-02T06:49:00.811Z,712.4
2022-10-02T06:50:44.496Z,712.3
2022-10-02T06:52:28.267Z,713.3
2022-10-02T06:54:11.880Z,715.4
2022-10-02T06:55:55.657Z,717.8
2022-10-02T06:57:39.362Z,717.6
2022-10-02T06:59:23.019Z,717.7
2022-10-02T07:01:06.707Z,717.8
2022-10-02T07:02:50.395Z,714.9
2022-10-02T07:04:34.123Z,713.9
2022-10-02T07:06:17.795Z,713
2022-10-02T07:08:01.554Z,708.1
2022-10-02T07:09:45.233Z,700
2022-10-02T07:11:28.953Z,694.8
2022-10-02T07:13:12.613Z,691.7
2022-10-02T07:14:56.318Z,692.8
2022-10-02T07:16:40.001Z,693.1
2022-10-02T07:18:23.744Z,693.1
2022-10-02T07:20:07.427Z,694.4
2022-10-02T07:21:51.143Z,694.8
2022-10-02T07:23:34.875Z,698.2
2022-10-02T07:25:18.492Z,702.5
2022-10-02T07:27:02.312Z,705.9
2022-10-02T07:28:46.220Z,713.4
2022-10-02T07:30:29.629Z,726.2
2022-10-02T07:32:13.315Z,733.1
2022-10-02T07:33:56.994Z,740.8
2022-10-02T07:35:40.715Z,754.8
2022-10-02T07:37:24.421Z,765.1
2022-10-02T07:39:08.232Z,766.2
2022-10-02T07:40:51.844Z,767.2
2022-10-02T07:42:35.590Z,767.4
2022-10-02T07:44:19.224Z,765.2
2022-10-02T07:46:02.919Z,766
2022-10-02T07:47:46.683Z,766.6
2022-10-02T07:49:30.416Z,765.7
2022-10-02T07:51:14.054Z,764.7
2022-10-02T07:52:57.755Z,766.6
2022-10-02T07:54:41.439Z,765.2
2022-10-02T07:56:25.213Z,765.8
2022-10-02T07:58:08.914Z,762
2022-10-02T07:59:52.663Z,758.8
2022-10-02T08:01:36.260Z,758.1
2022-10-02T08:03:19.934Z,756.8
2022-10-02T08:05:03.644Z,753.4
2022-10-02T08:06:47.378Z,753.2
2022-10-02T08:08:31.088Z,755.7
2022-10-02T08:10:14.796Z,756.4
2022-10-02T08:11:58.453Z,756.1
2022-10-02T08:13:42.129Z,756.2
2022-10-02T08:15:25.884Z,755.2
2022-10-02T08:17:09.650Z,756.4
2022-10-02T08:18:53.343Z,756.9
2022-10-02T08:20:37.010Z,754.4
2022-10-02T08:22:20.669Z,750.9
2022-10-02T08:24:04.386Z,749.9
2022-10-02T08:25:48.041Z,746.8
2022-10-02T08:27:31.741Z,746.5
2022-10-02T08:29:15.445Z,743.6
2022-10-02T08:30:59.223Z,739.6
2022-10-02T08:32:42.870Z,739.1
2022-10-02T08:34:26.565Z,737.7
2022-10-02T08:36:10.259Z,739.1
2022-10-02T08:37:54.026Z,740.8
2022-10-02T08:39:37.763Z,739.3
2022-10-02T08:41:21.493Z,734.7
2022-10-02T08:43:05.096Z,735.3
2022-10-02T08:44:48.867Z,734.3
2022-10-02T08:46:32.605Z,733.7
2022-10-02T08:48:16.221Z,733.1
2022-10-02T08:49:59.917Z,732.7
2022-10-02T08:51:43.615Z,731.7
2022-10-02T08:53:27.293Z,728.9
2022-10-02T08:55:11.024Z,728.5
2022-10-02T08:56:54.670Z,729.7
2022-10-02T08:58:38.465Z,731.8
2022-10-02T09:00:22.122Z,728.3
2022-10-02T09:02:05.799Z,729
2022-10-02T09:03:49.492Z,729
2022-10-02T09:05:33.193Z,726.9
2022-10-02T09:07:16.958Z,603.5
2022-10-02T09:09:00.657Z,517.7
2022-10-02T09:10:44.317Z,501.3
2022-10-02T09:12:28.035Z,550.6
2022-10-02T09:14:11.713Z,582.9
2022-10-02T09:15:55.393Z,598.3
2022-10-02T09:17:39.181Z,608.6
2022-10-02T09:19:22.874Z,614.4
2022-10-02T09:21:06.518Z,617.9
2022-10-02T09:22:50.215Z,623.1
2022-10-02T09:24:33.964Z,628.9
2022-10-02T09:26:17.628Z,630.4
2022-10-02T09:28:01.370Z,629.2
2022-10-02T09:29:45.151Z,632.1
2022-10-02T09:31:28.736Z,632.3
2022-10-02T09:33:12.452Z,634.2
2022-10-02T09:34:56.158Z,638.8
2022-10-02T09:36:39.909Z,644
2022-10-02T09:38:23.692Z,649.9
2022-10-02T09:40:07.257Z,657.2
2022-10-02T09:41:50.979Z,737.6
2022-10-02T09:43:34.743Z,744.1
2022-10-02T09:45:18.411Z,743.8
2022-10-02T09:47:02.099Z,744.5
2022-10-02T09:48:45.803Z,744.3
2022-10-02T09:50:29.478Z,743.4
2022-10-02T09:52:13.193Z,766.8
2022-10-02T09:53:56.949Z,819.4
2022-10-02T09:55:40.664Z,817.7
2022-10-02T09:57:24.298Z,810.4
2022-10-02T09:59:07.997Z,807.5
2022-10-02T10:00:51.703Z,804.8
2022-10-02T10:02:35.484Z,800.1
2022-10-02T10:06:02.845Z,797.9
2022-10-02T10:07:46.526Z,797.2
2022-10-02T10:09:30.233Z,798.2
2022-10-02T10:11:13.960Z,797.5
2022-10-02T10:12:57.680Z,800.3
2022-10-02T10:14:41.352Z,801.7
2022-10-02T10:16:25.047Z,804.9
2022-10-02T10:18:08.842Z,807.9
2022-10-02T10:19:52.447Z,815.4
2022-10-02T10:21:36.189Z,824.9
2022-10-02T10:23:20.002Z,830.5
2022-10-02T10:25:03.626Z,835.4
2022-10-02T10:26:47.284Z,844
2022-10-02T10:28:30.985Z,849.4
2022-10-02T10:30:14.714Z,856.8
2022-10-02T10:31:58.413Z,863.5
2022-10-02T10:33:42.079Z,869.6
2022-10-02T10:35:25.767Z,876.2
2022-10-02T10:37:09.467Z,887.6
2022-10-02T10:38:53.174Z,891.5
2022-10-02T10:40:36.958Z,897.4
2022-10-02T10:42:20.681Z,901.3
2022-10-02T10:44:04.381Z,905.5
2022-10-02T10:45:47.993Z,912
2022-10-02T10:47:31.698Z,916.3
2022-10-02T10:49:15.444Z,919.4
2022-10-02T10:50:59.124Z,924.1
2022-10-02T10:52:42.808Z,926.9
2022-10-02T10:54:26.499Z,935.5
2022-10-02T10:56:10.208Z,939.7
2022-10-02T10:57:53.918Z,939.2
2022-10-02T10:59:37.592Z,941.7
2022-10-02T11:01:21.336Z,946.8
2022-10-02T11:03:05.030Z,948.3
2022-10-02T11:04:48.783Z,949.6
2022-10-02T11:06:32.432Z,950.8
2022-10-02T11:08:16.100Z,951.4
2022-10-02T11:09:59.861Z,951
2022-10-02T11:11:43.570Z,950.3
2022-10-02T11:13:27.288Z,943.5
2022-10-02T11:15:10.956Z,940
2022-10-02T11:16:54.629Z,940.8
2022-10-02T11:18:38.376Z,940
2022-10-02T11:20:22.070Z,939.2
2022-10-02T11:22:05.866Z,941.9
2022-10-02T11:23:49.467Z,944.6
2022-10-02T11:25:33.169Z,951.5
2022-10-02T11:27:16.912Z,954
2022-10-02T11:29:00.664Z,954.8
2022-10-02T11:30:44.299Z,957.6
2022-10-02T11:32:27.959Z,1034.1
2022-10-02T11:34:11.699Z,1037
2022-10-02T11:35:55.493Z,1021
2022-10-02T11:37:39.124Z,999.1
2022-10-02T11:39:22.824Z,979.8
2022-10-02T11:41:06.471Z,975.2
2022-10-02T11:42:50.176Z,970.9
2022-10-02T11:44:33.890Z,971.5
2022-10-02T11:46:17.632Z,969.5
2022-10-02T11:48:01.322Z,960.8
2022-10-02T11:49:45.001Z,956.1
2022-10-02T11:51:28.832Z,955.6
2022-10-02T11:53:12.402Z,950.5
2022-10-02T11:54:56.156Z,943.6
2022-10-02T11:56:39.846Z,940.7
2022-10-02T11:58:23.529Z,942.5
2022-10-02T12:01:50.912Z,940.8
2022-10-02T12:03:34.682Z,942.6
2022-10-02T12:05:18.369Z,949.1
2022-10-02T12:07:02.066Z,955.1
2022-10-02T12:08:45.722Z,961.3
2022-10-02T12:10:29.457Z,966.3
2022-10-02T12:12:13.149Z,972
2022-10-02T12:13:56.884Z,975.9
2022-10-02T12:15:40.635Z,976.3
2022-10-02T12:17:24.306Z,978.5
2022-10-02T12:19:07.983Z,977.9
2022-10-02T12:20:51.696Z,979.9
2022-10-02T12:22:35.420Z,982.8
2022-10-02T12:24:19.091Z,988.2
2022-10-02T12:26:02.828Z,991.4
2022-10-02T12:27:46.447Z,995.4
2022-10-02T12:29:30.178Z,996.7
2022-10-02T12:31:13.879Z,994
2022-10-02T12:32:57.552Z,988.1
2022-10-02T12:34:41.325Z,989
2022-10-02T12:36:24.999Z,990.4
2022-10-02T12:38:08.660Z,992.6
2022-10-02T12:39:52.364Z,992.2
2022-10-02T12:41:36.059Z,993.7
2022-10-02T12:43:19.821Z,1009.4
2022-10-02T12:45:03.509Z,1016.8
2022-10-02T12:46:47.188Z,1011.6
2022-10-02T12:48:30.881Z,1011.2
2022-10-02T12:50:14.588Z,1037.7
2022-10-02T12:51:58.280Z,1033.6
2022-10-02T12:53:42.036Z,1025
2022-10-02T12:55:25.707Z,1029.7
2022-10-02T12:57:09.389Z,1037.2
2022-10-02T12:58:53.082Z,1061.1
2022-10-02T13:00:36.817Z,1096.3
2022-10-02T13:02:20.643Z,1116.1
2022-10-02T13:04:04.316Z,1122.9
2022-10-02T13:05:47.933Z,1130.7
2022-10-02T13:07:31.680Z,1139.6
2022-10-02T13:09:15.336Z,1150
2022-10-02T13:10:59.007Z,1160.2
2022-10-02T13:12:42.754Z,1168.7
2022-10-02T13:14:26.564Z,1177.9
2022-10-02T13:16:10.118Z,1188.1
2022-10-02T13:17:53.890Z,1194.5
2022-10-02T13:19:37.515Z,1203.1
2022-10-02T13:21:21.280Z,1211.6
2022-10-02T13:23:04.993Z,1216.7
2022-10-02T13:24:48.641Z,1220.5
2022-10-02T13:26:32.429Z,1225.3
2022-10-02T13:28:16.044Z,1228.4
2022-10-02T13:29:59.778Z,1219.9
2022-10-02T13:31:43.485Z,1193.2
2022-10-02T13:35:10.864Z,1147.2
2022-10-02T13:36:54.565Z,1145.1
2022-10-02T13:38:38.245Z,1142.5
2022-10-02T13:40:22.008Z,1136.3
2022-10-02T13:42:05.840Z,1141.4
2022-10-02T13:43:49.366Z,1142.2
2022-10-02T13:45:33.067Z,1133.8
2022-10-02T13:47:16.770Z,1130.3
2022-10-02T13:49:00.588Z,1197.5
2022-10-02T13:50:44.244Z,1238.3
2022-10-02T13:52:27.921Z,1228.9
2022-10-02T13:54:11.600Z,1229.9
2022-10-02T13:55:55.286Z,1222.6
2022-10-02T13:57:39.050Z,1222.1
2022-10-02T13:59:22.672Z,1221
2022-10-02T14:01:06.416Z,1222.1
2022-10-02T14:02:50.451Z,1221.7
2022-10-02T14:04:33.795Z,1216.2
2022-10-02T14:06:17.492Z,1206.7
2022-10-02T14:08:01.248Z,1194.4
2022-10-02T14:09:44.963Z,1181.1
2022-10-02T14:11:28.751Z,1172.7
2022-10-02T14:13:12.303Z,1171.6
2022-10-02T14:14:55.994Z,1183.7
2022-10-02T14:16:39.683Z,1203
2022-10-02T14:18:23.441Z,1218.4
2022-10-02T14:20:07.146Z,1228
2022-10-02T14:21:50.828Z,1234.3
2022-10-02T14:23:34.518Z,1239.1
2022-10-02T14:25:18.227Z,1227.6
2022-10-02T14:27:02.028Z,1215.5
2022-10-02T14:28:45.682Z,1207.9
2022-10-02T14:30:29.354Z,1212.9
2022-10-02T14:32:13.036Z,1222.2
2022-10-02T14:33:56.743Z,1230.3
2022-10-02T14:35:40.515Z,1244.8
2022-10-02T14:37:24.138Z,1249.2
2022-10-02T14:39:07.911Z,1253.2
2022-10-02T14:40:51.557Z,1255.2
2022-10-02T14:42:35.316Z,1254.9
2022-10-02T14:44:18.978Z,1257.1
2022-10-02T14:46:02.671Z,1258.5
2022-10-02T14:47:46.408Z,1260.9
2022-10-02T14:49:30.159Z,1281.2
2022-10-02T14:51:13.761Z,1304.1
2022-10-02T14:52:57.557Z,1315.3
2022-10-02T14:54:41.166Z,1317.1
2022-10-02T14:56:24.845Z,1316.7
2022-10-02T14:58:08.611Z,1313.9
2022-10-02T14:59:52.282Z,1318.7
2022-10-02T15:01:35.963Z,1323.8
2022-10-02T15:03:19.727Z,1321.7
2022-10-02T15:05:03.359Z,1322.9
2022-10-02T15:06:47.162Z,1321.4
2022-10-02T15:08:30.847Z,1321.3
2022-10-02T15:10:14.492Z,1320.5
2022-10-02T15:11:58.249Z,1318.1
2022-10-02T15:13:41.907Z,1312
2022-10-02T15:15:25.638Z,1310.2
2022-10-02T15:17:09.335Z,1310.2
2022-10-02T15:18:53.067Z,1310.1
2022-10-02T15:20:36.705Z,1315.9
2022-10-02T15:22:20.413Z,1315.2
2022-10-02T15:24:04.157Z,1304.4
2022-10-02T15:25:47.888Z,1302.2
2022-10-02T15:27:31.564Z,1304.7
2022-10-02T15:29:15.219Z,1306.5
2022-10-02T15:30:58.932Z,1312.3
2022-10-02T15:32:42.696Z,1310.4
2022-10-02T15:34:26.430Z,1307.4
2022-10-02T15:36:10.061Z,1311.5
2022-10-02T15:37:53.786Z,1307.2
2022-10-02T15:39:37.457Z,1296.7
2022-10-02T15:41:21.140Z,1288.5
2022-10-02T15:43:04.935Z,1286
2022-10-02T15:44:48.615Z,1282.9
2022-10-02T15:46:32.394Z,1283.1
2022-10-02T15:48:15.963Z,1285.6
2022-10-02T15:49:59.727Z,1291.8
2022-10-02T15:51:43.467Z,1289.8
2022-10-02T15:53:27.114Z,1290.4
2022-10-02T15:55:10.811Z,1282.5
2022-10-02T15:56:54.488Z,1267.4
2022-10-02T15:58:38.200Z,1247.5
2022-10-02T16:00:21.891Z,1245.4
2022-10-02T16:02:05.639Z,1253.6
2022-10-02T16:03:49.420Z,1256
2022-10-02T16:05:33.060Z,1255.2
2022-10-02T16:07:16.725Z,1258.1
2022-10-02T16:09:00.458Z,1257.9
2022-10-02T16:10:44.192Z,1258.8
2022-10-02T16:12:27.839Z,1259.6
2022-10-02T16:14:11.533Z,1263.9
2022-10-02T16:15:55.235Z,1265
2022-10-02T16:17:38.915Z,1261.6
2022-10-02T16:19:22.681Z,1257.1
2022-10-02T16:21:06.361Z,1259.2
2022-10-02T16:22:50.061Z,1261.5
2022-10-02T16:24:33.740Z,1263.2
2022-10-02T16:26:17.455Z,1267.1
2022-10-02T16:28:01.208Z,1268
2022-10-02T16:29:44.895Z,1269.6
2022-10-02T16:31:28.567Z,1271.7
2022-10-02T16:33:12.311Z,1273.6
2022-10-02T16:34:55.964Z,1273.4
2022-10-02T16:36:39.759Z,1271.6
2022-10-02T16:38:23.431Z,1272.2
2022-10-02T16:40:07.089Z,1272
2022-10-02T16:41:50.786Z,1272.7
2022-10-02T16:43:34.490Z,1272.9
2022-10-02T16:45:18.181Z,1271
2022-10-02T16:47:01.991Z,1271.3
2022-10-02T16:48:45.627Z,1270.7
2022-10-02T16:50:29.296Z,1266.5
2022-10-02T16:52:12.997Z,1266.1
2022-10-02T16:53:56.698Z,1268.4
2022-10-02T16:55:40.430Z,1272.4
2022-10-02T16:57:24.187Z,1276.8
2022-10-02T16:59:07.928Z,1280.6
2022-10-02T17:00:51.500Z,1279.2
2022-10-02T17:02:35.209Z,1278.4
2022-10-02T17:04:18.984Z,1278.6
2022-10-02T17:06:02.809Z,1281.6
2022-10-02T17:07:46.497Z,1279.7
2022-10-02T17:09:30.046Z,1278.4
2022-10-02T17:11:13.830Z,1282.8
2022-10-02T17:12:57.546Z,1280.5
2022-10-02T17:14:41.146Z,1275.8
2022-10-02T17:16:25.018Z,1265.8
2022-10-02T17:18:08.559Z,1261.8
2022-10-02T17:19:52.325Z,1259.9
2022-10-02T17:21:35.960Z,1256
2022-10-02T17:23:19.659Z,1258
2022-10-02T17:25:03.337Z,1257.4
2022-10-02T17:26:47.088Z,1255.8
2022-10-02T17:28:30.766Z,1256
2022-10-02T17:30:14.440Z,1257
2022-10-02T17:31:58.188Z,1252.4
2022-10-02T17:33:41.892Z,1244.8
2022-10-02T17:35:25.560Z,1247.8
2022-10-02T17:37:09.281Z,1246.7
2022-10-02T17:38:52.963Z,1252
2022-10-02T17:40:36.642Z,1256.9
2022-10-02T17:42:20.344Z,1265.2
2022-10-02T17:44:04.100Z,1278
2022-10-02T17:45:47.801Z,1309
2022-10-02T17:47:31.487Z,1329.8
2022-10-02T17:49:15.170Z,1341.2
2022-10-02T17:50:58.866Z,1349.8
2022-10-02T17:52:42.583Z,1350.2
2022-10-02T17:54:26.330Z,1350.5
2022-10-02T17:56:10.008Z,1352.1
2022-10-02T17:57:53.695Z,1350.1
2022-10-02T17:59:37.391Z,1350.8
2022-10-02T18:01:21.065Z,1353.5
2022-10-02T18:03:04.790Z,1350.4
2022-10-02T18:04:48.532Z,1346
2022-10-02T18:06:32.315Z,1343.9
2022-10-02T18:08:15.899Z,1336.4
2022-10-02T18:09:59.590Z,1334.8
2022-10-02T18:11:43.379Z,1339.1
2022-10-02T18:13:27.009Z,1340.3
2022-10-02T18:15:10.755Z,1339.4
2022-10-02T18:16:54.420Z,1338
2022-10-02T18:18:38.101Z,1334
2022-10-02T18:20:21.797Z,1333.5
2022-10-02T18:22:05.507Z,1336.7
2022-10-02T18:23:49.262Z,1336.8
2022-10-02T18:25:32.948Z,1338.8
2022-10-02T18:27:16.622Z,1336.7
2022-10-02T18:29:00.369Z,1344
2022-10-02T18:30:44.037Z,1345.5
2022-10-02T18:32:27.707Z,1343.3
2022-10-02T18:34:11.487Z,1344
2022-10-02T18:35:55.213Z,1343.9
2022-10-02T18:37:38.833Z,1344.1
2022-10-02T18:41:06.230Z,1347.6
2022-10-02T18:42:49.938Z,1344.7
2022-10-02T18:44:33.684Z,1347.3
2022-10-02T18:46:17.362Z,1349.9
2022-10-02T18:48:01.036Z,1350.5
2022-10-02T18:49:44.745Z,1349.2
2022-10-02T18:51:28.566Z,1349.2
2022-10-02T18:53:12.188Z,1347.4
2022-10-02T18:54:55.878Z,1343.8
2022-10-02T18:56:39.686Z,1342.8
2022-10-02T18:58:23.305Z,1341.2
2022-10-02T19:00:06.953Z,1344.1
2022-10-02T19:01:50.649Z,1342.4
2022-10-02T19:03:34.412Z,1342.8
2022-10-02T19:05:18.100Z,1338
2022-10-02T19:07:01.784Z,1339.5
2022-10-02T19:08:45.472Z,1342
2022-10-02T19:10:29.182Z,1344.4
2022-10-02T19:12:12.945Z,1344.7
2022-10-02T19:13:56.637Z,1339.3
2022-10-02T19:15:40.295Z,1339.8
2022-10-02T19:17:24.043Z,1339.1
2022-10-02T19:19:07.678Z,1339.6
2022-10-02T19:20:51.454Z,1341.1
2022-10-02T19:22:35.215Z,1337.2
2022-10-02T19:24:18.813Z,1333.1
2022-10-02T19:26:02.517Z,1333.9
2022-10-02T19:27:46.215Z,1335.9
2022-10-02T19:29:29.913Z,1338.6
2022-10-02T19:31:13.656Z,1338.7
2022-10-02T19:32:57.380Z,1341
2022-10-02T19:34:41.015Z,1341.9
2022-10-02T19:36:24.780Z,1340.4
2022-10-02T19:38:08.432Z,1338.1
2022-10-02T19:39:52.142Z,1337.7
2022-10-02T19:41:35.856Z,1334.7
2022-10-02T19:43:19.541Z,1331
2022-10-02T19:45:03.229Z,1328.5
2022-10-02T19:46:46.990Z,1329.2
2022-10-02T19:48:30.636Z,1333.1
2022-10-02T19:50:14.330Z,1330.4
2022-10-02T19:51:58.092Z,1329.7
2022-10-02T19:53:41.768Z,1331
2022-10-02T19:55:25.436Z,1331.9
2022-10-02T19:57:09.119Z,1332.7
2022-10-02T19:58:52.845Z,1338.3
2022-10-02T20:00:36.514Z,1339
2022-10-02T20:02:20.271Z,1336.6
2022-10-02T20:04:03.949Z,1333.1
2022-10-02T20:05:47.636Z,1329.6
2022-10-02T20:07:31.375Z,1328
2022-10-02T20:09:15.018Z,1327.2
2022-10-02T20:10:58.728Z,1329.6
2022-10-02T20:12:42.491Z,1332.1
2022-10-02T20:14:26.155Z,1328.9
2022-10-02T20:16:09.843Z,1327.5
2022-10-02T20:17:53.526Z,1325.4
2022-10-02T20:19:37.249Z,1323.9
2022-10-02T20:21:21.000Z,1323.5
2022-10-02T20:23:04.684Z,1327.3
2022-10-02T20:24:48.358Z,1328.4
2022-10-02T20:26:32.042Z,1326.6
2022-10-02T20:28:15.777Z,1328.6
2022-10-02T20:29:59.558Z,1328.2
2022-10-02T20:31:43.295Z,1329.7
2022-10-02T20:33:26.891Z,1327.8
2022-10-02T20:35:10.573Z,1325.8
2022-10-02T20:36:54.345Z,1322.2
2022-10-02T20:38:38.066Z,1319.3
2022-10-02T20:40:21.649Z,1319.3
2022-10-02T20:42:05.500Z,1315.3
2022-10-02T20:43:49.105Z,1315.4
2022-10-02T20:45:32.776Z,1315.6
2022-10-02T20:47:16.526Z,1320.7
2022-10-02T20:49:00.178Z,1322.8
2022-10-02T20:50:43.966Z,1323.3
2022-10-02T20:52:27.761Z,1323.5
2022-10-02T20:54:11.434Z,1318.2
2022-10-02T20:55:55.131Z,1316.9
2022-10-02T20:57:38.675Z,1316.7
2022-10-02T20:59:22.607Z,1317
2022-10-02T21:01:06.072Z,1316.6
2022-10-02T21:02:49.817Z,1321.6
2022-10-02T21:04:33.494Z,1321.7
2022-10-02T21:06:17.361Z,1318.2
2022-10-02T21:08:01.030Z,1318.6
2022-10-02T21:09:44.707Z,1318.3
2022-10-02T21:11:28.426Z,1317.5
2022-10-02T21:13:12.021Z,1315.8
2022-10-02T21:14:55.852Z,1318.6
2022-10-02T21:16:39.549Z,1318.3
2022-10-02T21:18:23.234Z,1321.3
2022-10-02T21:20:06.961Z,1325.2
2022-10-02T21:21:50.682Z,1318.7
2022-10-02T21:23:34.366Z,1301.6
2022-10-02T21:25:17.916Z,1295.3
2022-10-02T21:27:01.607Z,1296.8
2022-10-02T21:28:45.477Z,1298.7
2022-10-02T21:30:29.067Z,1300
2022-10-02T21:32:12.753Z,1299.6
2022-10-02T21:33:56.568Z,1297.2
2022-10-02T21:35:40.291Z,1293.2
2022-10-02T21:37:23.990Z,1289.2
2022-10-02T21:39:07.687Z,1288.5
2022-10-02T21:40:51.457Z,1290
2022-10-02T21:42:35.164Z,1288.2
2022-10-02T21:44:18.734Z,1283.4
2022-10-02T21:46:02.344Z,1276.6
2022-10-02T21:47:46.203Z,1271.6
2022-10-02T21:49:29.889Z,1267.1
2022-10-02T21:51:13.643Z,1263.5
2022-10-02T21:52:57.346Z,1261
2022-10-02T21:54:41.016Z,1257
2022-10-02T21:56:24.731Z,1252.9
2022-10-02T21:58:08.418Z,1251
2022-10-02T21:59:52.183Z,1245.8
2022-10-02T22:01:35.822Z,1240.3
2022-10-02T22:03:19.520Z,1235
2022-10-02T22:05:03.183Z,1228.7
2022-10-02T22:06:46.899Z,1221.8
2022-10-02T22:08:30.652Z,1210.5
2022-10-02T22:10:14.373Z,1203.6
2022-10-02T22:11:58.017Z,1195.9
2022-10-02T22:13:41.572Z,1193.7
2022-10-02T22:15:25.450Z,1191.5
2022-10-02T22:17:09.123Z,1189.8
2022-10-02T22:18:52.670Z,1184.2